Time;durP1;ratioP1;P1;durP2;ratioP2;P2;SDS_P1;SDS_P2;PMS_P1;PMS_P2;Temp;Humidity;BMP_temperature;BMP_pressure;BME280_temperature;BME280_humidity;BME280_pressure;Samples;Min_cycle;Max_cycle;Signal;HPM_P1;HPM_P2
2023/08/16 00:00:24;;;;;;;23.23;9.07;;;;;;;;;;5020876;28;20507;-58
2023/08/16 00:02:52;;;;;;;23.65;8.98;;;;;;;;;;5017822;28;20081;-57
2023/08/16 00:05:19;;;;;;;;;;;;;;;;;;5018454;28;20124;-57
2023/08/16 00:07:53;;;;;;;25.65;8.55;;;;;;;;;;5018714;28;21444;-56
2023/08/16 00:10:20;;;;;;;24.48;9.20;;;;;;;;;;5019090;28;20128;-57
2023/08/16 00:12:48;;;;;;;21.33;9.40;;;;;;;;;;5017511;28;20120;-57
2023/08/16 00:15:22;;;;;;;24.20;9.98;;;;;;;;;;5015651;28;20155;-60
2023/08/16 00:17:51;;;;;;;30.10;9.95;;;;;;;;;;5015966;28;20131;-59
2023/08/16 00:20:27;;;;;;;24.95;9.57;;;;;;;;;;5017712;28;20543;-59
2023/08/16 00:22:54;;;;;;;26.17;10.63;;;;;;;;;;5019357;28;20546;-60
2023/08/16 00:25:29;;;;;;;33.58;10.18;;;;;;;;;;5016919;28;20068;-71
2023/08/16 00:27:56;;;;;;;;;;;;;;;;;;5018959;28;20053;-59
2023/08/16 00:30:29;;;;;;;15.93;8.20;;;;;;;;;;5017314;28;19964;-59
2023/08/16 00:32:57;;;;;;;27.50;12.05;;;;;;;;;;5018857;28;20117;-59
2023/08/16 00:35:30;;;;;;;27.70;10.82;;;;;;;;;;5019367;28;20049;-59
2023/08/16 00:37:58;;;;;;;18.90;9.38;;;;;;;;;;5018100;28;20065;-59
2023/08/16 00:40:32;;;;;;;22.65;10.07;;;;;;;;;;5016981;28;20522;-59
2023/08/16 00:42:59;;;;;;;28.45;9.98;;;;;;;;;;5021664;28;20144;-51
2023/08/16 00:45:26;;;;;;;23.08;10.07;;;;;;;;;;5013171;28;20069;-48
2023/08/16 00:48:00;;;;;;;25.55;9.23;;;;;;;;;;5013236;28;20054;-54
2023/08/16 00:50:27;;;;;;;31.65;10.98;;;;;;;;;;5017872;28;20092;-53
2023/08/16 00:53:01;;;;;;;28.02;10.30;;;;;;;;;;5018617;28;20053;-55
2023/08/16 00:55:28;;;;;;;25.50;10.27;;;;;;;;;;5015605;28;20184;-60
2023/08/16 00:58:02;;;;;;;27.98;11.25;;;;;;;;;;5018356;28;20057;-55
2023/08/16 01:00:29;;;;;;;24.52;9.70;;;;;;;;;;5007378;28;20308;-58
2023/08/16 01:03:02;;;;;;;20.65;8.13;;;;;;;;;;5015691;28;20111;-55
2023/08/16 01:05:31;;;;;;;29.33;10.65;;;;;;;;;;5016889;28;20141;-58
2023/08/16 01:07:58;;;;;;;29.05;10.93;;;;;;;;;;5015471;28;20056;-57
2023/08/16 01:10:35;;;;;;;25.48;10.82;;;;;;;;;;5016822;28;20794;-58
2023/08/16 01:13:12;;;;;;;30.10;11.65;;;;;;;;;;5019905;28;20053;-57
2023/08/16 01:15:56;;;;;;;22.13;10.85;;;;;;;;;;5020485;28;20416;-56
2023/08/16 01:18:24;;;;;;;28.88;10.88;;;;;;;;;;5016601;28;20049;-58
2023/08/16 01:20:59;;;;;;;23.35;10.30;;;;;;;;;;5018203;28;20053;-57
2023/08/16 01:23:46;;;;;;;32.60;11.10;;;;;;;;;;5014154;28;20084;-52
2023/08/16 01:26:28;;;;;;;28.77;10.93;;;;;;;;;;5017968;28;20057;-59
2023/08/16 01:28:57;;;;;;;28.23;10.50;;;;;;;;;;5020193;28;20053;-58
2023/08/16 01:31:32;;;;;;;25.85;9.95;;;;;;;;;;5013937;28;20053;-58
2023/08/16 01:33:59;;;;;;;25.00;10.15;;;;;;;;;;5014759;28;20057;-59
2023/08/16 01:36:33;;;;;;;27.23;12.05;;;;;;;;;;5015335;28;20073;-58
2023/08/16 01:39:00;;;;;;;25.63;10.13;;;;;;;;;;5014700;28;20568;-58
2023/08/16 01:41:39;;;;;;;25.63;8.70;;;;;;;;;;5016709;28;20612;-50
2023/08/16 01:44:13;;;;;;;19.40;8.40;;;;;;;;;;5017481;28;20137;-54
2023/08/16 01:46:41;;;;;;;26.05;8.80;;;;;;;;;;5016713;28;20061;-54
2023/08/16 01:49:15;;;;;;;31.70;9.68;;;;;;;;;;5015308;28;20450;-51
2023/08/16 01:51:42;;;;;;;26.30;8.82;;;;;;;;;;5013007;28;20050;-54
2023/08/16 01:54:15;;;;;;;26.90;9.95;;;;;;;;;;5013337;28;20046;-60
2023/08/16 01:56:43;;;;;;;20.25;7.55;;;;;;;;;;5015524;28;20489;-60
2023/08/16 01:59:17;;;;;;;25.98;7.65;;;;;;;;;;5014619;28;20119;-60
2023/08/16 02:01:44;;;;;;;20.05;7.38;;;;;;;;;;5014979;28;20641;-59
2023/08/16 02:04:11;;;;;;;;;;;;;;;;;;5012609;28;20051;-59
2023/08/16 02:06:44;;;;;;;23.75;7.55;;;;;;;;;;5012580;28;19928;-60
2023/08/16 02:09:12;;;;;;;17.67;7.00;;;;;;;;;;5015853;28;20049;-59
2023/08/16 02:11:39;;;;;;;20.67;7.70;;;;;;;;;;5012690;28;20049;-59
2023/08/16 02:14:12;;;;;;;24.33;7.82;;;;;;;;;;5017879;28;20104;-60
2023/08/16 02:16:46;;;;;;;26.70;7.55;;;;;;;;;;5017402;28;20079;-60
2023/08/16 02:19:14;;;;;;;28.30;8.52;;;;;;;;;;5015644;28;20058;-69
2023/08/16 02:21:48;;;;;;;25.63;8.30;;;;;;;;;;5016185;28;20136;-66
2023/08/16 02:24:15;;;;;;;19.02;7.30;;;;;;;;;;5011932;28;20054;-67
2023/08/16 02:26:42;;;;;;;17.23;6.38;;;;;;;;;;5002572;28;20136;-66
2023/08/16 02:29:15;;;;;;;23.83;7.10;;;;;;;;;;5011977;28;20119;-67
2023/08/16 02:31:43;;;;;;;20.77;6.35;;;;;;;;;;5013549;28;20056;-66
2023/08/16 02:34:16;;;;;;;17.90;6.43;;;;;;;;;;5022066;28;20057;-66
2023/08/16 02:36:47;;;;;;;21.30;6.70;;;;;;;;;;5009556;28;20112;-65
2023/08/16 02:39:14;;;;;;;22.65;6.50;;;;;;;;;;5014849;28;20101;-57
2023/08/16 02:41:47;;;;;;;21.23;6.25;;;;;;;;;;5015699;28;20518;-58
2023/08/16 02:44:17;;;;;;;21.13;5.35;;;;;;;;;;5014545;28;20109;-56
2023/08/16 02:46:50;;;;;;;17.45;4.60;;;;;;;;;;5015381;28;20533;-55
2023/08/16 02:49:18;;;;;;;20.20;6.20;;;;;;;;;;5016136;28;20057;-66
2023/08/16 02:51:51;;;;;;;26.05;5.88;;;;;;;;;;5010464;28;20057;-58
2023/08/16 02:54:19;;;;;;;16.73;5.28;;;;;;;;;;5010661;28;20338;-59
2023/08/16 02:56:53;;;;;;;23.73;6.10;;;;;;;;;;5017153;28;20073;-57
2023/08/16 02:59:20;;;;;;;23.02;5.28;;;;;;;;;;5014054;28;20139;-59
2023/08/16 03:01:47;;;;;;;19.20;5.95;;;;;;;;;;5018646;28;20411;-59
2023/08/16 03:04:22;;;;;;;16.45;5.80;;;;;;;;;;5015321;28;20053;-59
2023/08/16 03:06:49;;;;;;;16.58;5.15;;;;;;;;;;5018067;28;20519;-65
2023/08/16 03:09:23;;;;;;;16.23;5.85;;;;;;;;;;5014210;28;20053;-66
2023/08/16 03:11:50;;;;;;;21.85;6.05;;;;;;;;;;5015178;28;20054;-65
2023/08/16 03:14:30;;;;;;;28.20;5.70;;;;;;;;;;5011378;28;20358;-66
2023/08/16 03:16:58;;;;;;;13.95;5.43;;;;;;;;;;5017491;28;20077;-69
2023/08/16 03:19:32;;;;;;;16.52;4.75;;;;;;;;;;5018792;28;20177;-59
2023/08/16 03:21:59;;;;;;;14.65;4.47;;;;;;;;;;5014973;28;20050;-59
2023/08/16 03:24:33;;;;;;;17.13;5.63;;;;;;;;;;5014298;28;20050;-60
2023/08/16 03:27:00;;;;;;;22.35;5.72;;;;;;;;;;5011502;28;20582;-59
2023/08/16 03:29:34;;;;;;;23.38;5.00;;;;;;;;;;5016149;28;20506;-59
2023/08/16 03:32:01;;;;;;;21.10;5.15;;;;;;;;;;5014402;28;20144;-60
2023/08/16 03:34:36;;;;;;;19.38;5.28;;;;;;;;;;5018801;28;20053;-69
2023/08/16 03:37:03;;;;;;;19.08;5.20;;;;;;;;;;5006632;28;20428;-69
2023/08/16 03:39:36;;;;;;;25.48;6.15;;;;;;;;;;5013680;28;20073;-68
2023/08/16 03:42:04;;;;;;;19.42;5.75;;;;;;;;;;5018432;28;20052;-69
2023/08/16 03:44:37;;;;;;;15.45;5.40;;;;;;;;;;5014699;28;20601;-53
2023/08/16 03:47:05;;;;;;;16.35;5.55;;;;;;;;;;5017459;28;20053;-59
2023/08/16 03:49:38;;;;;;;17.42;5.25;;;;;;;;;;5015093;28;20053;-57
2023/08/16 03:52:06;;;;;;;19.52;5.55;;;;;;;;;;5014978;28;20061;-56
2023/08/16 03:54:40;;;;;;;20.05;5.22;;;;;;;;;;5013737;28;20605;-57
2023/08/16 03:57:07;;;;;;;23.88;5.22;;;;;;;;;;5015677;28;20158;-56
2023/08/16 03:59:34;;;;;;;27.33;5.63;;;;;;;;;;5015184;28;20061;-54
2023/08/16 04:02:11;;;;;;;17.63;4.75;;;;;;;;;;5007730;28;20491;-55
2023/08/16 04:04:38;;;;;;;23.58;5.22;;;;;;;;;;5018532;28;20045;-60
2023/08/16 04:07:12;;;;;;;16.33;5.05;;;;;;;;;;5018704;28;20108;-60
2023/08/16 04:09:40;;;;;;;;;;;;;;;;;;5016843;28;20056;-60
2023/08/16 04:12:07;;;;;;;22.38;5.60;;;;;;;;;;5012558;28;19933;-60
2023/08/16 04:14:47;;;;;;;18.90;5.20;;;;;;;;;;5024159;28;20147;-59
2023/08/16 04:17:14;;;;;;;29.27;5.97;;;;;;;;;;5016541;28;20490;-56
2023/08/16 04:19:49;;;;;;;14.70;5.32;;;;;;;;;;5015654;28;20581;-57
2023/08/16 04:22:16;;;;;;;17.83;5.25;;;;;;;;;;5014741;28;20107;-56
2023/08/16 04:24:49;;;;;;;16.73;4.90;;;;;;;;;;5014499;28;20097;-58
2023/08/16 04:27:17;;;;;;;18.50;5.43;;;;;;;;;;5012158;28;20054;-53
2023/08/16 04:29:51;;;;;;;25.92;5.78;;;;;;;;;;5014008;28;20527;-58
2023/08/16 04:32:18;;;;;;;20.02;5.40;;;;;;;;;;5017752;28;20703;-52
2023/08/16 04:34:52;;;;;;;22.05;4.82;;;;;;;;;;5023259;28;20147;-50
2023/08/16 04:37:19;;;;;;;18.55;4.85;;;;;;;;;;5020485;28;20054;-52
2023/08/16 04:39:53;;;;;;;18.40;4.93;;;;;;;;;;5015704;28;20049;-52
2023/08/16 04:42:20;;;;;;;18.52;4.25;;;;;;;;;;5015352;28;20084;-57
2023/08/16 04:44:54;;;;;;;20.13;4.50;;;;;;;;;;5015744;28;20597;-59
2023/08/16 04:47:28;;;;;;;17.58;4.90;;;;;;;;;;5014874;28;20077;-60
2023/08/16 04:50:06;;;;;;;23.65;5.15;;;;;;;;;;5018334;28;20056;-60
2023/08/16 04:52:34;;;;;;;16.08;4.35;;;;;;;;;;5019624;28;20057;-59
2023/08/16 04:55:01;;;;;;;13.75;4.07;;;;;;;;;;5013912;28;20558;-59
2023/08/16 04:57:41;;;;;;;18.58;4.93;;;;;;;;;;5016394;28;20602;-59
2023/08/16 05:00:09;;;;;;;15.98;4.47;;;;;;;;;;5015391;28;20447;-58
2023/08/16 05:02:44;;;;;;;19.10;5.18;;;;;;;;;;5014154;28;20065;-59
2023/08/16 05:05:11;;;;;;;14.60;5.47;;;;;;;;;;5017499;28;20065;-58
2023/08/16 05:07:38;;;;;;;12.65;4.32;;;;;;;;;;5011075;28;20061;-57
2023/08/16 05:10:13;;;;;;;16.05;4.50;;;;;;;;;;5013408;28;20041;-67
2023/08/16 05:12:47;;;;;;;19.17;5.05;;;;;;;;;;5015237;28;20104;-51
2023/08/16 05:15:28;;;;;;;16.08;4.70;;;;;;;;;;5018139;28;20415;-47
2023/08/16 05:17:56;;;;;;;15.80;4.65;;;;;;;;;;5014936;28;20128;-51
2023/08/16 05:20:30;;;;;;;21.38;5.50;;;;;;;;;;5015180;28;20125;-50
2023/08/16 05:22:57;;;;;;;20.60;5.43;;;;;;;;;;5020162;28;20058;-53
2023/08/16 05:25:24;;;;;;;19.70;4.90;;;;;;;;;;5017335;28;20057;-45
2023/08/16 05:28:01;;;;;;;12.48;4.20;;;;;;;;;;5014318;28;20058;-55
2023/08/16 05:30:28;;;;;;;14.13;5.00;;;;;;;;;;5017716;28;20058;-56
2023/08/16 05:33:02;;;;;;;14.55;4.35;;;;;;;;;;5012610;28;20050;-55
2023/08/16 05:35:32;;;;;;;15.32;4.35;;;;;;;;;;5020527;28;21244;-56
2023/08/16 05:38:06;;;;;;;10.50;3.40;;;;;;;;;;5020238;28;20546;-49
2023/08/16 05:40:33;;;;;;;15.43;3.97;;;;;;;;;;5020050;28;20052;-67
2023/08/16 05:43:00;;;;;;;12.13;4.10;;;;;;;;;;5016933;28;20053;-68
2023/08/16 05:45:34;;;;;;;11.52;4.05;;;;;;;;;;5018808;28;20789;-69
2023/08/16 05:48:01;;;;;;;17.08;4.45;;;;;;;;;;5012513;28;20104;-68
2023/08/16 05:50:36;;;;;;;14.30;4.13;;;;;;;;;;5018204;28;20073;-68
2023/08/16 05:53:04;;;;;;;13.52;4.45;;;;;;;;;;5018451;28;20061;-69
2023/08/16 05:55:31;;;;;;;12.23;4.15;;;;;;;;;;5015041;28;20054;-69
2023/08/16 05:58:05;;;;;;;14.35;4.45;;;;;;;;;;5016073;28;20117;-53
2023/08/16 06:00:33;;;;;;;14.02;4.55;;;;;;;;;;5015005;28;20062;-55
2023/08/16 06:03:07;;;;;;;18.20;5.13;;;;;;;;;;5014642;28;20729;-52
2023/08/16 06:05:34;;;;;;;;;;;;;;;;;;5016076;28;20045;-54
2023/08/16 06:08:02;;;;;;;13.95;4.40;;;;;;;;;;5020829;28;19928;-57
2023/08/16 06:10:36;;;;;;;18.10;4.53;;;;;;;;;;5017541;28;20613;-66
2023/08/16 06:13:03;;;;;;;12.70;4.47;;;;;;;;;;5019494;28;20446;-66
2023/08/16 06:15:43;;;;;;;15.57;4.72;;;;;;;;;;5014711;28;20097;-67
2023/08/16 06:18:12;;;;;;;14.20;4.47;;;;;;;;;;5013792;28;20056;-67
2023/08/16 06:20:46;;;;;;;13.15;4.22;;;;;;;;;;5015669;28;20108;-67
2023/08/16 06:23:13;;;;;;;16.58;4.72;;;;;;;;;;5013010;28;20531;-65
2023/08/16 06:25:41;;;;;;;16.48;4.90;;;;;;;;;;5015919;28;20116;-61
2023/08/16 06:28:15;;;;;;;21.23;5.18;;;;;;;;;;5014342;28;20128;-61
2023/08/16 06:30:42;;;;;;;23.55;5.70;;;;;;;;;;5017805;28;20057;-61
2023/08/16 06:33:09;;;;;;;19.08;4.88;;;;;;;;;;5019272;28;20080;-61
2023/08/16 06:35:43;;;;;;;20.63;4.68;;;;;;;;;;5016992;28;20053;-58
2023/08/16 06:38:10;;;;;;;11.90;5.40;;;;;;;;;;5015020;28;20442;-51
2023/08/16 06:40:44;;;;;;;21.83;4.80;;;;;;;;;;5018272;28;20108;-52
2023/08/16 06:43:11;;;;;;;10.77;3.95;;;;;;;;;;5015310;28;20136;-49
2023/08/16 06:45:39;;;;;;;16.65;4.28;;;;;;;;;;5018081;28;20049;-45
2023/08/16 06:48:13;;;;;;;19.77;5.05;;;;;;;;;;5017269;28;20104;-49
2023/08/16 06:50:46;;;;;;;14.05;3.90;;;;;;;;;;5018545;28;20143;-48
2023/08/16 06:53:21;;;;;;;17.90;4.50;;;;;;;;;;5021175;28;20123;-60
2023/08/16 06:55:48;;;;;;;10.90;3.65;;;;;;;;;;5017372;28;20057;-60
2023/08/16 06:58:15;;;;;;;13.52;4.35;;;;;;;;;;5017004;28;20061;-60
2023/08/16 07:00:49;;;;;;;16.98;4.18;;;;;;;;;;5017435;28;20053;-60
2023/08/16 07:03:17;;;;;;;13.77;4.18;;;;;;;;;;5013679;28;20093;-71
2023/08/16 07:05:51;;;;;;;16.85;3.65;;;;;;;;;;5012163;28;20551;-50
2023/08/16 07:08:18;;;;;;;;;;;;;;;;;;5019351;28;20077;-65
2023/08/16 07:10:46;;;;;;;13.75;3.20;;;;;;;;;;5015739;28;19996;-64
2023/08/16 07:13:32;;;;;;;10.57;2.80;;;;;;;;;;5011389;28;20136;-64
2023/08/16 07:16:07;;;;;;;10.57;3.03;;;;;;;;;;5020161;28;20494;-64
2023/08/16 07:18:41;;;;;;;8.60;3.00;;;;;;;;;;4994291;28;20054;-64
2023/08/16 07:21:08;;;;;;;12.88;2.78;;;;;;;;;;5014209;28;20486;-64
2023/08/16 07:23:35;;;;;;;6.00;2.28;;;;;;;;;;5014243;28;20099;-57
2023/08/16 07:26:10;;;;;;;7.70;2.30;;;;;;;;;;5015737;28;20143;-58
2023/08/16 07:28:37;;;;;;;6.55;2.10;;;;;;;;;;5016265;28;20303;-58
2023/08/16 07:31:11;;;;;;;5.57;1.80;;;;;;;;;;5014338;28;20053;-58
2023/08/16 07:33:38;;;;;;;;;;;;;;;;;;5014683;28;20526;-50
2023/08/16 07:36:06;;;;;;;6.32;1.98;;;;;;;;;;5019554;28;19969;-71
2023/08/16 07:38:40;;;;;;;4.80;1.50;;;;;;;;;;5020829;28;20298;-71
2023/08/16 07:41:07;;;;;;;6.97;2.35;;;;;;;;;;5022026;28;20512;-71
2023/08/16 07:43:34;;;;;;;2.33;1.30;;;;;;;;;;5021485;28;20929;-71
2023/08/16 07:46:09;;;;;;;5.60;1.60;;;;;;;;;;5019361;28;20474;-70
2023/08/16 07:48:36;;;;;;;7.53;1.80;;;;;;;;;;5020832;28;20531;-71
2023/08/16 07:51:10;;;;;;;2.85;1.35;;;;;;;;;;5016120;28;20125;-71
2023/08/16 07:53:37;;;;;;;;;;;;;;;;;;5021152;28;20842;-71
2023/08/16 07:56:04;;;;;;;8.77;2.10;;;;;;;;;;5018005;28;19925;-69
2023/08/16 07:58:38;;;;;;;5.57;1.63;;;;;;;;;;5019322;28;20041;-71
2023/08/16 08:01:05;;;;;;;6.07;1.92;;;;;;;;;;5020130;28;20061;-51
2023/08/16 08:03:39;;;;;;;6.90;1.98;;;;;;;;;;5014492;28;20533;-60
2023/08/16 08:06:09;;;;;;;6.50;2.33;;;;;;;;;;5017514;28;20524;-59
2023/08/16 08:08:36;;;;;;;11.43;2.17;;;;;;;;;;5014888;28;20077;-61
2023/08/16 08:11:10;;;;;;;6.50;2.17;;;;;;;;;;5022977;28;20107;-60
2023/08/16 08:13:43;;;;;;;7.32;2.08;;;;;;;;;;5020237;28;20494;-60
2023/08/16 08:16:17;;;;;;;7.55;2.13;;;;;;;;;;5019157;28;20112;-62
2023/08/16 08:18:45;;;;;;;;;;;;;;;;;;5020010;28;20061;-59
2023/08/16 08:21:12;;;;;;;6.40;2.27;;;;;;;;;;5018605;28;20389;-58
2023/08/16 08:23:46;;;;;;;13.02;2.30;;;;;;;;;;5015727;28;20061;-58
2023/08/16 08:26:13;;;;;;;;;;;;;;;;;;5019348;28;20058;-59
2023/08/16 08:28:47;;;;;;;6.30;1.90;;;;;;;;;;5014519;28;19921;-59
2023/08/16 08:31:15;;;;;;;;;;;;;;;;;;5019060;28;20108;-69
2023/08/16 08:33:45;;;;;;;5.43;1.70;;;;;;;;;;5018173;28;19930;-69
2023/08/16 08:36:19;;;;;;;5.18;1.98;;;;;;;;;;5013754;28;20403;-68
2023/08/16 08:38:46;;;;;;;4.65;1.80;;;;;;;;;;5018496;28;20065;-68
2023/08/16 08:41:23;;;;;;;5.53;1.88;;;;;;;;;;5023162;28;20089;-68
2023/08/16 08:44:00;;;;;;;8.75;2.20;;;;;;;;;;5020632;28;20496;-68
2023/08/16 08:46:34;;;;;;;11.25;2.22;;;;;;;;;;5015279;28;20076;-68
2023/08/16 08:49:02;;;;;;;7.57;2.33;;;;;;;;;;5020484;28;20507;-67
2023/08/16 08:51:30;;;;;;;7.85;2.17;;;;;;;;;;5018745;28;20279;-67
2023/08/16 08:54:04;;;;;;;8.07;1.98;;;;;;;;;;5020663;28;20067;-69
2023/08/16 08:56:31;;;;;;;8.75;2.15;;;;;;;;;;5018842;28;20087;-67
2023/08/16 08:59:06;;;;;;;8.25;2.17;;;;;;;;;;5015060;28;20312;-59
2023/08/16 09:01:36;;;;;;;6.40;1.95;;;;;;;;;;5002668;28;20066;-60
2023/08/16 09:04:08;;;;;;;8.07;1.95;;;;;;;;;;5019246;28;20068;-60
2023/08/16 09:06:42;;;;;;;3.70;1.42;;;;;;;;;;5016622;28;20538;-60
2023/08/16 09:09:09;;;;;;;;;;;;;;;;;;5019235;28;20259;-60
2023/08/16 09:11:43;;;;;;;5.03;1.40;;;;;;;;;;5019583;28;20445;-60
2023/08/16 09:14:16;;;;;;;8.13;1.88;;;;;;;;;;5020269;28;20513;-60
2023/08/16 09:16:57;;;;;;;5.60;1.50;;;;;;;;;;5015200;28;20084;-54
2023/08/16 09:19:32;;;;;;;4.38;1.63;;;;;;;;;;5016155;28;20058;-50
2023/08/16 09:21:59;;;;;;;7.03;1.70;;;;;;;;;;5018044;28;20061;-50
2023/08/16 09:24:26;;;;;;;5.47;1.40;;;;;;;;;;5018282;28;20065;-50
2023/08/16 09:27:00;;;;;;;6.10;1.52;;;;;;;;;;5019692;28;20057;-58
2023/08/16 09:29:27;;;;;;;12.95;1.85;;;;;;;;;;5018058;28;20474;-59
2023/08/16 09:31:57;;;;;;;8.20;1.75;;;;;;;;;;5019897;28;20053;-59
2023/08/16 09:34:32;;;;;;;7.05;1.80;;;;;;;;;;5017077;28;20052;-58
2023/08/16 09:37:20;;;;;;;7.35;1.73;;;;;;;;;;5017564;28;20046;-59
2023/08/16 09:39:56;;;;;;;5.80;1.67;;;;;;;;;;5017112;28;20072;-58
2023/08/16 09:42:33;;;;;;;7.75;1.95;;;;;;;;;;5019310;28;20584;-59
2023/08/16 09:45:01;;;;;;;9.40;2.50;;;;;;;;;;5017154;28;20060;-60
2023/08/16 09:47:42;;;;;;;7.93;2.13;;;;;;;;;;5017186;28;20545;-60
2023/08/16 09:50:32;;;;;;;7.28;2.13;;;;;;;;;;5020109;28;20551;-60
2023/08/16 09:53:11;;;;;;;5.07;1.75;;;;;;;;;;5018253;28;20116;-60
2023/08/16 09:55:48;;;;;;;10.82;2.28;;;;;;;;;;5016474;28;20514;-58
2023/08/16 09:58:22;;;;;;;8.90;1.88;;;;;;;;;;5013908;28;20527;-70
2023/08/16 10:00:49;;;;;;;7.85;1.95;;;;;;;;;;5015639;28;20049;-71
2023/08/16 10:03:17;;;;;;;11.98;2.17;;;;;;;;;;5015956;28;20103;-70
2023/08/16 10:05:51;;;;;;;6.68;1.90;;;;;;;;;;5021536;28;20419;-70
2023/08/16 10:08:19;;;;;;;6.32;2.08;;;;;;;;;;5021370;28;20540;-70
2023/08/16 10:10:54;;;;;;;3.75;1.50;;;;;;;;;;5017486;28;20053;-70
2023/08/16 10:13:23;;;;;;;12.65;2.17;;;;;;;;;;5016530;28;20058;-57
2023/08/16 10:16:04;;;;;;;5.88;1.65;;;;;;;;;;5016788;28;20115;-59
2023/08/16 10:18:31;;;;;;;7.20;1.80;;;;;;;;;;5017572;28;20050;-59
2023/08/16 10:21:06;;;;;;;8.50;2.30;;;;;;;;;;5016160;28;20111;-57
2023/08/16 10:23:35;;;;;;;5.85;2.05;;;;;;;;;;5016533;28;20435;-60
2023/08/16 10:26:03;;;;;;;6.22;1.98;;;;;;;;;;5013143;28;20494;-69
2023/08/16 10:28:37;;;;;;;10.18;1.90;;;;;;;;;;5015260;28;20273;-71
2023/08/16 10:31:05;;;;;;;6.72;1.98;;;;;;;;;;5016060;28;20107;-69
2023/08/16 10:33:44;;;;;;;10.93;1.88;;;;;;;;;;5014340;28;20061;-69
2023/08/16 10:36:12;;;;;;;8.13;2.38;;;;;;;;;;5003362;28;20046;-70
2023/08/16 10:38:53;;;;;;;12.38;2.33;;;;;;;;;;5018536;28;20064;-70
2023/08/16 10:41:27;;;;;;;9.35;1.80;;;;;;;;;;5019945;28;20469;-58
2023/08/16 10:43:54;;;;;;;8.18;2.50;;;;;;;;;;5017505;28;20057;-59
2023/08/16 10:46:32;;;;;;;6.82;2.15;;;;;;;;;;5019492;28;20076;-58
2023/08/16 10:49:00;;;;;;;8.07;1.80;;;;;;;;;;5019577;28;20179;-58
2023/08/16 10:51:28;;;;;;;6.97;2.05;;;;;;;;;;5018514;28;20518;-70
2023/08/16 10:54:05;;;;;;;7.10;1.83;;;;;;;;;;5014893;28;20065;-59
2023/08/16 10:56:44;;;;;;;3.55;1.70;;;;;;;;;;5021521;28;20057;-59
2023/08/16 10:59:18;;;;;;;5.93;1.75;;;;;;;;;;5016547;28;20061;-59
2023/08/16 11:01:46;;;;;;;7.68;1.67;;;;;;;;;;5013260;28;20105;-59
2023/08/16 11:04:13;;;;;;;10.32;1.90;;;;;;;;;;5015846;28;20056;-59
2023/08/16 11:06:47;;;;;;;9.23;2.00;;;;;;;;;;5014440;28;20067;-60
2023/08/16 11:09:29;;;;;;;6.95;2.10;;;;;;;;;;5022083;28;20454;-58
2023/08/16 11:12:03;;;;;;;9.38;2.00;;;;;;;;;;5019335;28;20365;-58
2023/08/16 11:14:36;;;;;;;4.15;1.70;;;;;;;;;;5018776;28;20576;-56
2023/08/16 11:17:13;;;;;;;5.00;1.98;;;;;;;;;;5014694;28;20053;-57
2023/08/16 11:19:41;;;;;;;6.78;2.15;;;;;;;;;;5018341;28;20084;-57
2023/08/16 11:22:12;;;;;;;3.78;2.03;;;;;;;;;;5019756;28;20056;-66
2023/08/16 11:24:47;;;;;;;7.23;2.50;;;;;;;;;;5017024;28;20116;-59
2023/08/16 11:27:20;;;;;;;2.95;1.77;;;;;;;;;;5020227;28;20308;-59
2023/08/16 11:29:54;;;;;;;6.78;2.13;;;;;;;;;;5022136;28;20056;-58
2023/08/16 11:32:31;;;;;;;4.18;1.90;;;;;;;;;;5003463;28;20141;-57
2023/08/16 11:35:08;;;;;;;8.30;1.92;;;;;;;;;;5018281;28;20124;-59
2023/08/16 11:37:36;;;;;;;3.97;1.60;;;;;;;;;;5018973;28;20775;-57
2023/08/16 11:40:07;;;;;;;4.45;1.95;;;;;;;;;;5019175;28;20061;-59
2023/08/16 11:42:41;;;;;;;7.97;1.90;;;;;;;;;;5018568;28;20489;-58
2023/08/16 11:45:25;;;;;;;6.95;2.13;;;;;;;;;;5018800;28;20077;-58
2023/08/16 11:47:59;;;;;;;3.47;2.00;;;;;;;;;;5020540;28;20081;-53
2023/08/16 11:50:26;;;;;;;;;;;;;;;;;;5015694;28;20050;-69
2023/08/16 11:53:01;;;;;;;4.47;2.33;;;;;;;;;;5015088;28;19936;-61
2023/08/16 11:55:35;;;;;;;4.93;2.00;;;;;;;;;;5016905;28;20096;-61
2023/08/16 11:58:05;;;;;;;4.55;1.70;;;;;;;;;;5019372;28;20057;-61
2023/08/16 12:00:40;;;;;;;3.80;1.73;;;;;;;;;;5016583;28;20108;-61
2023/08/16 12:03:11;;;;;;;4.18;1.90;;;;;;;;;;5018933;28;20053;-61
2023/08/16 12:05:49;;;;;;;5.70;2.28;;;;;;;;;;5018391;28;20554;-61
2023/08/16 12:08:24;;;;;;;9.00;2.30;;;;;;;;;;5015529;28;20054;-52
2023/08/16 12:10:58;;;;;;;8.07;2.25;;;;;;;;;;5017338;28;20053;-52
2023/08/16 12:13:33;;;;;;;6.35;2.10;;;;;;;;;;5016646;28;20152;-54
2023/08/16 12:16:13;;;;;;;5.97;2.25;;;;;;;;;;5021145;28;20153;-60
2023/08/16 12:18:41;;;;;;;11.60;2.60;;;;;;;;;;5019982;28;20503;-51
2023/08/16 12:21:15;;;;;;;5.95;2.22;;;;;;;;;;5018326;28;20057;-59
2023/08/16 12:23:42;;;;;;;12.52;2.53;;;;;;;;;;5021655;28;20053;-60
2023/08/16 12:26:09;;;;;;;;;;;;;;;;;;5018650;28;20138;-59
2023/08/16 12:28:43;;;;;;;5.55;2.70;;;;;;;;;;5020889;28;19925;-60
2023/08/16 12:31:11;;;;;;;7.75;2.00;;;;;;;;;;5016861;28;20520;-59
2023/08/16 12:33:46;;;;;;;8.02;2.30;;;;;;;;;;5015832;28;20070;-59
2023/08/16 12:36:13;;;;;;;6.63;2.17;;;;;;;;;;5021594;28;20157;-54
2023/08/16 12:38:41;;;;;;;7.88;2.47;;;;;;;;;;5018181;28;20608;-55
2023/08/16 12:41:15;;;;;;;8.63;2.85;;;;;;;;;;5000968;28;20053;-52
2023/08/16 12:43:42;;;;;;;6.75;2.55;;;;;;;;;;5014006;28;20079;-55
2023/08/16 12:46:09;;;;;;;7.50;2.65;;;;;;;;;;5015308;28;20085;-53
2023/08/16 12:48:43;;;;;;;8.77;2.53;;;;;;;;;;5020326;28;20572;-67
2023/08/16 12:51:10;;;;;;;5.05;1.95;;;;;;;;;;5019117;28;20060;-67
2023/08/16 12:53:44;;;;;;;8.77;2.40;;;;;;;;;;5017212;28;20100;-67
2023/08/16 12:56:12;;;;;;;4.88;2.00;;;;;;;;;;5015978;28;20060;-67
2023/08/16 12:58:39;;;;;;;9.27;2.50;;;;;;;;;;5016231;28;20116;-68
2023/08/16 13:01:23;;;;;;;8.60;2.40;;;;;;;;;;5019604;28;20049;-68
2023/08/16 13:03:50;;;;;;;;;;;;;;;;;;5019941;28;20073;-61
2023/08/16 13:06:27;;;;;;;5.88;2.03;;;;;;;;;;5023250;28;19925;-61
2023/08/16 13:08:58;;;;;;;9.13;2.42;;;;;;;;;;5021524;28;20079;-61
2023/08/16 13:11:32;;;;;;;4.18;1.83;;;;;;;;;;5016837;28;20089;-61
2023/08/16 13:14:12;;;;;;;6.88;2.05;;;;;;;;;;5013088;28;20531;-60
2023/08/16 13:16:56;;;;;;;9.25;2.03;;;;;;;;;;5015857;28;20054;-66
2023/08/16 13:19:31;;;;;;;6.43;1.70;;;;;;;;;;5017318;28;20061;-66
2023/08/16 13:22:12;;;;;;;9.23;2.38;;;;;;;;;;5014451;28;20054;-65
2023/08/16 13:24:44;;;;;;;4.05;1.55;;;;;;;;;;5012788;28;20060;-65
2023/08/16 13:27:21;;;;;;;7.30;1.70;;;;;;;;;;5019761;28;20103;-66
2023/08/16 13:29:54;;;;;;;4.53;1.88;;;;;;;;;;5022187;28;20566;-65
2023/08/16 13:32:48;;;;;;;5.88;2.13;;;;;;;;;;5018748;28;20041;-65
2023/08/16 13:35:19;;;;;;;7.35;1.90;;;;;;;;;;5015193;28;20144;-65
2023/08/16 13:37:58;;;;;;;4.97;2.25;;;;;;;;;;5012190;28;20060;-65
2023/08/16 13:40:25;;;;;;;3.58;1.90;;;;;;;;;;5018293;28;20540;-65
2023/08/16 13:43:00;;;;;;;4.57;2.25;;;;;;;;;;5017471;28;20052;-60
2023/08/16 13:45:37;;;;;;;6.57;1.98;;;;;;;;;;5018438;28;20054;-54
2023/08/16 13:48:04;;;;;;;4.90;2.00;;;;;;;;;;5017847;28;20581;-54
2023/08/16 13:50:39;;;;;;;7.05;2.22;;;;;;;;;;5016017;28;20062;-54
2023/08/16 13:53:06;;;;;;;2.88;1.77;;;;;;;;;;5016271;28;20424;-50
2023/08/16 13:55:40;;;;;;;6.35;2.20;;;;;;;;;;5013322;28;20045;-53
2023/08/16 13:58:07;;;;;;;5.68;2.00;;;;;;;;;;5015199;28;20118;-53
2023/08/16 14:00:35;;;;;;;3.22;2.10;;;;;;;;;;5012844;28;20272;-54
2023/08/16 14:03:09;;;;;;;5.97;1.80;;;;;;;;;;5016293;28;20107;-52
2023/08/16 14:05:36;;;;;;;;;;;;;;;;;;5014191;28;20049;-52
2023/08/16 14:08:10;;;;;;;3.58;1.98;;;;;;;;;;5018880;28;19925;-54
2023/08/16 14:10:38;;;;;;;3.97;1.50;;;;;;;;;;5020953;28;20424;-61
2023/08/16 14:13:05;;;;;;;2.80;1.90;;;;;;;;;;5017982;28;20530;-59
2023/08/16 14:15:46;;;;;;;2.65;1.40;;;;;;;;;;5019253;28;20058;-65
2023/08/16 14:18:20;;;;;;;3.28;1.60;;;;;;;;;;5013085;28;20053;-65
2023/08/16 14:20:54;;;;;;;2.95;1.60;;;;;;;;;;5015992;28;20048;-65
2023/08/16 14:23:21;;;;;;;;;;;;;;;;;;5017146;28;20443;-65
2023/08/16 14:25:49;;;;;;;4.57;1.30;;;;;;;;;;5015018;28;19921;-66
2023/08/16 14:28:24;;;;;;;4.78;1.73;;;;;;;;;;5009377;28;20876;-61
2023/08/16 14:30:51;;;;;;;2.75;1.33;;;;;;;;;;5012198;28;20080;-61
2023/08/16 14:33:25;;;;;;;2.95;1.65;;;;;;;;;;5019095;28;20046;-61
2023/08/16 14:35:52;;;;;;;2.50;1.42;;;;;;;;;;5014541;28;20056;-61
2023/08/16 14:38:20;;;;;;;3.88;1.33;;;;;;;;;;5014377;28;20045;-60
2023/08/16 14:40:54;;;;;;;2.67;1.27;;;;;;;;;;5016373;28;20049;-59
2023/08/16 14:43:21;;;;;;;5.03;1.58;;;;;;;;;;5013681;28;22571;-61
2023/08/16 14:45:55;;;;;;;6.47;1.60;;;;;;;;;;5021898;28;20054;-60
2023/08/16 14:48:23;;;;;;;8.00;2.08;;;;;;;;;;5005915;28;20586;-60
2023/08/16 14:50:50;;;;;;;10.15;2.38;;;;;;;;;;5017507;28;20054;-61
2023/08/16 14:53:24;;;;;;;8.77;2.50;;;;;;;;;;5013206;28;20435;-60
2023/08/16 14:55:52;;;;;;;6.65;1.98;;;;;;;;;;5013174;28;20109;-61
2023/08/16 14:58:26;;;;;;;10.65;2.70;;;;;;;;;;5015545;28;20080;-65
2023/08/16 15:00:53;;;;;;;10.23;2.30;;;;;;;;;;5014078;28;20053;-65
2023/08/16 15:03:20;;;;;;;11.23;2.42;;;;;;;;;;5016134;28;20189;-65
2023/08/16 15:05:54;;;;;;;8.27;2.40;;;;;;;;;;5010255;28;20069;-65